Time;durP1;ratioP1;P1;durP2;ratioP2;P2;SDS_P1;SDS_P2;PMS_P1;PMS_P2;Temp;Humidity;BMP_temperature;BMP_pressure;BME280_temperature;BME280_humidity;BME280_pressure;Samples;Min_cycle;Max_cycle;Signal;HPM_P1;HPM_P2
2022/10/10 00:02:38;;;;;;;12.87;6.77;;;14.00;60.20;;;;;;4965982;28;20209;-95
2022/10/10 00:05:08;;;;;;;20.20;9.37;;;14.00;60.80;;;;;;4979692;28;20190;-94
2022/10/10 00:07:39;;;;;;;8.03;5.90;;;14.00;60.10;;;;;;4978736;28;20249;-94
2022/10/10 00:10:09;;;;;;;13.40;6.07;;;14.00;60.40;;;;;;4974288;28;20207;-94
2022/10/10 00:12:38;;;;;;;8.33;5.67;;;14.00;60.50;;;;;;4956373;28;20235;-93
2022/10/10 00:15:13;;;;;;;11.00;6.07;;;13.90;60.50;;;;;;4956402;28;20227;-95
2022/10/10 00:18:03;;;;;;;9.10;5.80;;;13.90;60.70;;;;;;4972421;28;20205;-94
2022/10/10 00:20:35;;;;;;;9.50;5.60;;;13.90;61.10;;;;;;4985231;28;20209;-94
2022/10/10 00:23:03;;;;;;;10.30;6.20;;;13.90;60.70;;;;;;4969430;28;20304;-94
2022/10/10 00:25:32;;;;;;;7.93;5.70;;;13.80;60.40;;;;;;4965731;28;20238;-94
2022/10/10 00:30:47;;;;;;;13.13;6.83;;;13.90;60.90;;;;;;4959742;28;20216;-94
2022/10/10 00:33:19;;;;;;;12.33;6.33;;;13.80;60.70;;;;;;4970415;28;20211;-95
2022/10/10 00:35:49;;;;;;;14.80;6.83;;;13.80;61.30;;;;;;4977416;28;20243;-95
2022/10/10 00:38:17;;;;;;;12.87;6.40;;;13.80;61.00;;;;;;4986601;28;20287;-94
2022/10/10 00:40:53;;;;;;;17.57;7.47;;;13.80;61.20;;;;;;4983510;28;20223;-94
2022/10/10 00:43:28;;;;;;;19.30;8.10;;;13.70;61.20;;;;;;4966753;28;20210;-94
2022/10/10 00:46:40;;;;;;;12.57;5.93;;;13.70;61.30;;;;;;4976053;28;20202;-95
2022/10/10 00:49:20;;;;;;;12.83;5.53;;;13.70;61.50;;;;;;4977766;28;20219;-95
2022/10/10 00:51:51;;;;;;;15.63;6.90;;;13.70;61.40;;;;;;4979048;28;20190;-94
2022/10/10 00:54:25;;;;;;;9.43;5.33;;;13.70;61.40;;;;;;4986242;28;20203;-93
2022/10/10 00:57:21;;;;;;;9.33;5.50;;;13.70;61.50;;;;;;4976344;28;20253;-94
2022/10/10 00:59:59;;;;;;;12.70;5.93;;;13.70;61.80;;;;;;4967235;28;20206;-96
2022/10/10 01:02:29;;;;;;;10.80;5.77;;;13.70;61.80;;;;;;4965576;28;20224;-94
2022/10/10 01:04:58;;;;;;;12.40;6.43;;;13.60;61.70;;;;;;4961376;28;20219;-93
2022/10/10 01:07:34;;;;;;;12.17;6.57;;;13.60;61.60;;;;;;4971640;28;20278;-96
2022/10/10 01:10:06;;;;;;;7.73;5.23;;;13.60;61.80;;;;;;4977452;28;20737;-94
2022/10/10 01:12:49;;;;;;;15.93;6.63;;;13.60;61.70;;;;;;4982992;28;20230;-94
2022/10/10 01:15:52;;;;;;;;;;;;;;;;;;;;;
2022/10/10 01:18:40;;;;;;;10.37;5.73;;;13.60;62.20;;;;;;4980248;28;20209;-94
2022/10/10 01:21:26;;;;;;;16.40;6.53;;;13.60;62.10;;;;;;4977654;28;20240;-95
2022/10/10 01:24:30;;;;;;;12.30;6.03;;;13.60;61.80;;;;;;4973041;28;20227;-96
2022/10/10 01:27:13;;;;;;;16.60;6.70;;;13.50;62.00;;;;;;4966514;28;20213;-93
2022/10/10 01:29:48;;;;;;;13.10;5.93;;;13.50;61.90;;;;;;4976136;28;20191;-95
2022/10/10 01:32:23;;;;;;;13.90;6.53;;;13.50;62.00;;;;;;4970347;28;20209;-94
2022/10/10 01:40:47;;;;;;;8.23;4.37;;;13.50;62.40;;;;;;4952846;28;20680;-95
2022/10/10 01:43:17;;;;;;;10.83;6.07;;;13.50;62.30;;;;;;4973268;28;20207;-95
2022/10/10 01:46:10;;;;;;;11.47;5.30;;;13.50;62.10;;;;;;4977727;28;22038;-95
2022/10/10 01:48:38;;;;;;;11.27;5.63;;;13.40;62.80;;;;;;4973863;28;20282;-96
2022/10/10 01:51:29;;;;;;;13.03;5.90;;;13.40;62.40;;;;;;4987078;28;20229;-96
2022/10/10 01:54:07;;;;;;;12.03;5.43;;;13.40;63.40;;;;;;4974523;28;20653;-96
2022/10/10 01:57:05;;;;;;;;;;;;;;;;;;;;;
2022/10/10 01:59:42;;;;;;;11.47;5.40;;;13.40;63.20;;;;;;4976170;28;20235;-95
2022/10/10 02:03:05;;;;;;;10.73;5.40;;;13.40;63.00;;;;;;4974917;28;20218;-94
2022/10/10 02:06:03;;;;;;;8.53;4.60;;;13.40;63.40;;;;;;4955225;28;20776;-94
2022/10/10 02:08:54;;;;;;;8.60;4.47;;;13.50;63.10;;;;;;4958849;28;20265;-94
2022/10/10 02:11:23;;;;;;;10.37;4.93;;;13.40;63.50;;;;;;4957643;28;20254;-94
2022/10/10 02:13:56;;;;;;;3.97;3.37;;;13.50;62.90;;;;;;4958325;28;20206;-94
2022/10/10 02:16:31;;;;;;;8.20;4.57;;;13.40;63.10;;;;;;4957383;28;20608;-94
2022/10/10 02:19:21;;;;;;;8.70;4.83;;;13.40;63.20;;;;;;4957122;28;20503;-94
2022/10/10 02:25:14;;;;;;;14.40;5.80;;;13.50;63.70;;;;;;4940346;28;20295;-94
2022/10/10 02:31:41;;;;;;;14.93;5.43;;;13.50;63.40;;;;;;4967687;28;20206;-93
2022/10/10 02:34:13;;;;;;;9.90;5.20;;;13.50;63.40;;;;;;4968611;28;20267;-94
2022/10/10 02:37:04;;;;;;;14.73;6.23;;;13.40;62.90;;;;;;4958712;28;20242;-94
2022/10/10 02:43:37;;;;;;;19.90;6.37;;;13.40;63.70;;;;;;4908419;29;20669;-94
2022/10/10 02:46:09;;;;;;;13.00;5.47;;;13.40;63.70;;;;;;4917281;29;20716;-93
2022/10/10 02:48:38;;;;;;;9.27;4.60;;;13.40;63.20;;;;;;4924632;29;20212;-94
2022/10/10 02:51:05;;;;;;;12.97;5.80;;;13.40;63.30;;;;;;4933291;29;20208;-93
2022/10/10 02:53:35;;;;;;;10.73;5.30;;;13.40;63.40;;;;;;4954808;28;20214;-94
2022/10/10 02:56:07;;;;;;;11.57;5.17;;;13.40;63.70;;;;;;4959438;28;20289;-94
2022/10/10 02:58:35;;;;;;;8.97;4.13;;;13.30;63.70;;;;;;4972828;28;20203;-95
2022/10/10 03:01:09;;;;;;;7.00;4.23;;;13.30;63.60;;;;;;4976930;28;20269;-94
2022/10/10 03:03:52;;;;;;;10.53;5.37;;;13.30;63.80;;;;;;4976370;28;20205;-91
2022/10/10 03:06:19;;;;;;;9.93;5.03;;;13.30;64.30;;;;;;4957008;28;20226;-94
2022/10/10 03:09:18;;;;;;;9.60;4.70;;;13.30;63.70;;;;;;4957397;28;20202;-94
2022/10/10 03:11:49;;;;;;;9.87;4.53;;;13.30;64.50;;;;;;4898169;29;20217;-94
2022/10/10 03:14:19;;;;;;;5.90;4.17;;;13.30;63.80;;;;;;4952342;28;20720;-94
2022/10/10 03:16:46;;;;;;;9.33;4.97;;;13.30;63.80;;;;;;4975715;28;20238;-94
2022/10/10 03:19:32;;;;;;;12.07;4.57;;;13.20;63.60;;;;;;4956580;28;20556;-93
2022/10/10 03:22:01;;;;;;;14.97;6.40;;;13.30;64.50;;;;;;4956359;28;20365;-94
2022/10/10 03:25:08;;;;;;;9.93;4.73;;;13.20;64.10;;;;;;4963056;28;20215;-93
2022/10/10 03:27:38;;;;;;;11.67;4.97;;;13.30;65.70;;;;;;4961327;28;20206;-94
2022/10/10 03:30:08;;;;;;;9.37;4.60;;;13.20;64.20;;;;;;4955586;28;20292;-94
2022/10/10 03:33:00;;;;;;;9.90;4.90;;;13.20;64.70;;;;;;4958282;28;20219;-95
2022/10/10 03:35:30;;;;;;;10.57;5.07;;;13.20;64.90;;;;;;4968109;28;20224;-94
2022/10/10 03:38:00;;;;;;;9.87;5.03;;;13.30;65.00;;;;;;4965963;28;20270;-95
2022/10/10 03:40:29;;;;;;;18.23;5.87;;;13.30;65.00;;;;;;4979272;28;20213;-94
2022/10/10 03:42:59;;;;;;;16.47;6.83;;;13.30;65.20;;;;;;4985071;28;20193;-94
2022/10/10 03:45:27;;;;;;;10.20;4.97;;;13.30;65.50;;;;;;4991618;28;20586;-94
2022/10/10 03:47:54;;;;;;;9.10;5.07;;;13.30;65.50;;;;;;5162862;23;20244;-94
2022/10/10 03:50:32;;;;;;;6.63;4.13;;;13.30;65.40;;;;;;4987842;28;20203;-95
2022/10/10 03:53:09;;;;;;;9.90;5.13;;;13.30;66.00;;;;;;4978712;28;20230;-94
2022/10/10 03:55:42;;;;;;;8.07;4.33;;;13.30;65.70;;;;;;4978422;28;20850;-95
2022/10/10 03:58:15;;;;;;;13.10;5.37;;;13.30;66.00;;;;;;4977723;28;20206;-95
2022/10/10 04:00:44;;;;;;;8.77;4.83;;;13.30;66.10;;;;;;4978865;28;20214;-94
2022/10/10 04:03:12;;;;;;;15.17;5.87;;;13.40;66.10;;;;;;4977372;28;20210;-93
2022/10/10 04:05:46;;;;;;;9.40;4.70;;;13.30;66.00;;;;;;4981330;28;20233;-94
2022/10/10 04:08:16;;;;;;;14.70;6.33;;;13.40;66.50;;;;;;4979939;28;20224;-95
2022/10/10 04:10:52;;;;;;;11.30;5.23;;;13.40;66.20;;;;;;4979964;28;20301;-94
2022/10/10 04:13:27;;;;;;;12.27;5.53;;;13.40;66.50;;;;;;4997715;28;20213;-94
2022/10/10 04:15:57;;;;;;;9.07;4.90;;;13.50;66.80;;;;;;4997891;28;20233;-95
2022/10/10 04:18:28;;;;;;;7.33;4.50;;;13.40;66.40;;;;;;4980696;28;20210;-93
2022/10/10 04:21:03;;;;;;;11.27;5.47;;;13.40;66.40;;;;;;4989354;28;20201;-93
2022/10/10 04:26:38;;;;;;;12.40;5.30;;;13.50;67.10;;;;;;4999374;28;20233;-94
2022/10/10 04:29:22;;;;;;;11.53;4.70;;;13.50;66.70;;;;;;4990318;28;20224;-94
2022/10/10 04:31:50;;;;;;;9.10;4.67;;;13.50;67.20;;;;;;4976830;28;20214;-95
2022/10/10 04:34:17;;;;;;;11.50;5.53;;;13.50;66.30;;;;;;4980685;28;20218;-94
2022/10/10 04:36:45;;;;;;;11.57;5.63;;;13.50;66.40;;;;;;4979175;28;20234;-95
2022/10/10 04:39:12;;;;;;;10.33;5.33;;;13.60;66.80;;;;;;4979807;28;20214;-95
2022/10/10 04:41:40;;;;;;;8.73;4.80;;;13.50;66.70;;;;;;4981484;28;20211;-94
2022/10/10 04:44:10;;;;;;;10.17;5.40;;;13.50;66.70;;;;;;4989975;28;20266;-95
2022/10/10 04:46:37;;;;;;;8.90;4.60;;;13.50;66.90;;;;;;5275520;23;20288;-93
2022/10/10 04:54:40;;;;;;;5.80;4.37;;;13.60;66.90;;;;;;4982356;28;20218;-96
2022/10/10 04:59:57;;;;;;;13.57;5.70;;;13.60;67.00;;;;;;4986198;28;20311;-93
2022/10/10 05:02:36;;;;;;;13.37;5.60;;;13.60;66.80;;;;;;4988942;28;20207;-93
2022/10/10 05:05:24;;;;;;;20.63;7.37;;;13.60;67.00;;;;;;4992565;28;20214;-94
2022/10/10 05:07:57;;;;;;;13.63;5.73;;;13.60;67.50;;;;;;4989024;28;20659;-94
2022/10/10 05:10:26;;;;;;;17.27;7.07;;;13.60;67.10;;;;;;5002293;28;20215;-93
2022/10/10 05:12:56;;;;;;;19.33;6.53;;;13.50;66.70;;;;;;5001610;28;20202;-94
2022/10/10 05:18:39;;;;;;;7.17;4.13;;;13.60;67.30;;;;;;5011471;23;20228;-95
2022/10/10 05:21:07;;;;;;;15.97;5.97;;;13.60;67.10;;;;;;5004091;28;20206;-95
2022/10/10 05:23:34;;;;;;;13.63;6.00;;;13.50;66.80;;;;;;4997466;28;20198;-95
2022/10/10 05:29:11;;;;;;;15.60;5.23;;;13.50;67.20;;;;;;4991457;28;20298;-94
2022/10/10 05:31:40;;;;;;;16.47;6.57;;;13.50;67.00;;;;;;5006118;28;20206;-93
2022/10/10 05:34:12;;;;;;;13.73;6.33;;;13.50;67.10;;;;;;4990014;28;20209;-94
2022/10/10 05:39:58;;;;;;;15.43;6.53;;;13.50;67.70;;;;;;4983951;28;20245;-89
2022/10/10 05:42:33;;;;;;;14.77;6.57;;;13.50;67.20;;;;;;4985262;28;20566;-93
2022/10/10 05:45:31;;;;;;;20.47;7.67;;;13.50;67.40;;;;;;4962216;28;20279;-94
2022/10/10 05:47:58;;;;;;;14.17;6.03;;;13.50;67.60;;;;;;4916199;28;20264;-94
2022/10/10 05:51:24;;;;;;;19.43;7.30;;;13.50;67.20;;;;;;4965562;28;20293;-95
2022/10/10 05:53:56;;;;;;;13.10;5.90;;;13.50;68.10;;;;;;4971145;28;20240;-95
2022/10/10 05:59:47;;;;;;;13.13;6.20;;;13.50;67.60;;;;;;5002498;23;20233;-96
2022/10/10 06:02:20;;;;;;;9.20;5.40;;;13.50;68.50;;;;;;4996160;28;20213;-96
2022/10/10 06:04:52;;;;;;;13.63;6.17;;;13.40;67.90;;;;;;4985403;28;20260;-95
2022/10/10 06:07:27;;;;;;;18.03;6.37;;;13.50;68.00;;;;;;4997574;28;20202;-95
2022/10/10 06:09:59;;;;;;;9.93;5.00;;;13.50;68.60;;;;;;4993739;28;20215;-93
2022/10/10 06:18:16;;;;;;;17.67;6.90;;;13.40;68.00;;;;;;5115555;23;20276;-94
2022/10/10 06:20:50;;;;;;;9.23;4.93;;;13.50;68.20;;;;;;4977775;28;20257;-94
2022/10/10 06:23:21;;;;;;;11.30;5.37;;;13.50;68.80;;;;;;4990321;28;20202;-94
2022/10/10 06:29:18;;;;;;;10.27;5.10;;;13.50;69.60;;;;;;5000828;23;20236;-95
2022/10/10 06:32:19;;;;;;;14.53;6.03;;;13.50;68.80;;;;;;4995749;23;20229;-96
2022/10/10 06:34:49;;;;;;;11.40;5.47;;;13.50;69.90;;;;;;5003324;23;20226;-94
2022/10/10 06:37:16;;;;;;;12.93;5.87;;;13.50;69.30;;;;;;4958193;28;20575;-94
2022/10/10 06:39:46;;;;;;;12.00;5.90;;;13.50;69.00;;;;;;4953642;28;20209;-96
2022/10/10 06:46:09;;;;;;;11.80;5.70;;;13.50;70.00;;;;;;5226365;23;20233;-94
2022/10/10 06:49:02;;;;;;;12.87;6.43;;;13.60;70.30;;;;;;4991269;28;20997;-96
2022/10/10 06:54:51;;;;;;;15.70;6.63;;;13.60;70.20;;;;;;4913604;28;20289;-93
2022/10/10 06:57:19;;;;;;;36.60;12.90;;;13.60;69.70;;;;;;4963676;23;20219;-95
2022/10/10 06:59:56;;;;;;;16.37;6.00;;;13.70;69.90;;;;;;4964671;28;20210;-95
2022/10/10 07:03:04;;;;;;;18.10;7.67;;;13.70;70.20;;;;;;4973370;28;20212;-95
2022/10/10 07:09:04;;;;;;;13.27;5.83;;;13.80;71.20;;;;;;4932894;28;20217;-95
2022/10/10 07:11:51;;;;;;;13.57;6.77;;;13.80;70.30;;;;;;4957232;28;20244;-96
2022/10/10 07:14:18;;;;;;;13.83;6.47;;;13.80;70.80;;;;;;4951327;28;20214;-93
2022/10/10 07:16:45;;;;;;;20.43;8.43;;;13.80;70.30;;;;;;4960440;28;20225;-94
2022/10/10 07:21:57;;;;;;;13.20;6.67;;;13.90;71.10;;;;;;5083735;23;20642;-93
2022/10/10 07:24:34;;;;;;;15.17;6.93;;;13.90;71.00;;;;;;4986012;28;20205;-92
2022/10/10 07:27:01;;;;;;;19.90;7.87;;;14.00;71.40;;;;;;4992350;28;20206;-93
2022/10/10 07:29:30;;;;;;;9.00;5.57;;;14.00;70.90;;;;;;4993985;28;20290;-92
2022/10/10 07:32:06;;;;;;;12.37;6.60;;;14.10;71.30;;;;;;4987842;28;20202;-91
2022/10/10 07:34:35;;;;;;;11.00;6.07;;;14.10;71.70;;;;;;4995374;28;20202;-92
2022/10/10 07:37:02;;;;;;;11.83;6.20;;;14.20;71.10;;;;;;4971444;28;20234;-96
2022/10/10 07:39:33;;;;;;;15.03;7.17;;;14.20;71.20;;;;;;4974291;28;20219;-94
2022/10/10 07:42:00;;;;;;;16.93;7.27;;;14.20;71.50;;;;;;4974035;28;20783;-94
2022/10/10 07:44:27;;;;;;;22.13;7.27;;;14.20;71.20;;;;;;4975152;28;20570;-91
2022/10/10 07:46:54;;;;;;;12.83;6.80;;;14.30;71.30;;;;;;4974642;28;20207;-91
2022/10/10 07:49:23;;;;;;;11.57;6.27;;;14.30;71.40;;;;;;4975839;28;20226;-94
2022/10/10 07:51:50;;;;;;;24.10;9.27;;;14.40;71.70;;;;;;4977654;28;20238;-94
2022/10/10 07:54:22;;;;;;;13.53;6.90;;;14.40;71.70;;;;;;4966790;28;20587;-95
2022/10/10 07:57:09;;;;;;;16.73;7.07;;;14.40;72.50;;;;;;4978653;28;20230;-92
2022/10/10 07:59:36;;;;;;;18.57;7.10;;;14.60;73.50;;;;;;4979898;28;20297;-95
2022/10/10 08:05:29;;;;;;;19.50;8.50;;;14.70;73.60;;;;;;4976659;28;20210;-93
2022/10/10 08:08:11;;;;;;;19.50;7.53;;;14.80;72.30;;;;;;4979789;28;20722;-93
2022/10/10 08:10:42;;;;;;;9.90;6.10;;;14.90;73.10;;;;;;4961153;28;20294;-94
2022/10/10 08:13:12;;;;;;;12.73;6.67;;;14.90;72.20;;;;;;4977539;28;20657;-93
2022/10/10 08:15:41;;;;;;;13.60;7.27;;;15.00;72.40;;;;;;4983067;28;20192;-92
2022/10/10 08:21:21;;;;;;;21.20;8.87;;;15.20;72.70;;;;;;4981356;28;20215;-94
2022/10/10 08:23:51;;;;;;;16.97;8.00;;;15.20;71.80;;;;;;4974920;28;20222;-94
2022/10/10 08:26:19;;;;;;;22.93;9.07;;;15.30;71.90;;;;;;4982014;28;20226;-92
2022/10/10 08:28:49;;;;;;;18.57;7.43;;;15.30;71.90;;;;;;4992714;28;20194;-96
2022/10/10 08:31:23;;;;;;;11.97;6.33;;;15.40;72.30;;;;;;4986106;28;20319;-94
2022/10/10 08:33:52;;;;;;;15.30;6.73;;;15.50;72.90;;;;;;4973712;28;20257;-96
2022/10/10 08:43:07;;;;;;;20.13;8.27;;;15.70;72.70;;;;;;4943576;28;20231;-95
2022/10/10 08:45:41;;;;;;;20.33;8.73;;;15.90;72.60;;;;;;4960116;28;20226;-96
2022/10/10 08:48:24;;;;;;;21.90;8.90;;;16.00;72.50;;;;;;4973992;28;20214;-93
2022/10/10 08:50:58;;;;;;;13.90;6.13;;;16.10;72.40;;;;;;4975793;28;20209;-95
2022/10/10 08:53:31;;;;;;;16.67;7.63;;;16.20;72.50;;;;;;4976143;28;20656;-94
2022/10/10 08:56:02;;;;;;;11.97;5.57;;;16.30;72.40;;;;;;4976464;28;20602;-94
2022/10/10 08:58:37;;;;;;;16.37;6.97;;;16.30;72.00;;;;;;4971269;28;20256;-95
2022/10/10 09:04:51;;;;;;;18.17;7.83;;;16.60;71.80;;;;;;4981631;23;21035;-95
2022/10/10 09:07:27;;;;;;;14.97;7.10;;;16.70;71.50;;;;;;4988804;28;20213;-93
2022/10/10 09:10:33;;;;;;;9.77;6.50;;;16.70;71.10;;;;;;4990208;28;20213;-96
2022/10/10 09:13:14;;;;;;;16.87;8.43;;;16.80;71.00;;;;;;4978793;28;20264;-95
2022/10/10 09:16:33;;;;;;;15.37;7.03;;;16.90;70.90;;;;;;4990744;28;20206;-96
2022/10/10 09:19:14;;;;;;;20.30;8.20;;;16.90;71.00;;;;;;4979223;28;20576;-95
2022/10/10 09:21:44;;;;;;;25.53;9.33;;;17.10;70.90;;;;;;4984236;28;20220;-95
2022/10/10 09:24:17;;;;;;;12.93;6.73;;;17.10;70.80;;;;;;4985710;28;20210;-95
2022/10/10 09:26:50;;;;;;;13.20;6.43;;;17.20;71.00;;;;;;4990076;28;20213;-95
2022/10/10 09:29:56;;;;;;;17.87;7.40;;;17.20;71.10;;;;;;4988238;28;20735;-96
2022/10/10 09:32:43;;;;;;;14.57;6.43;;;17.30;71.30;;;;;;4997196;28;20213;-96
2022/10/10 09:36:01;;;;;;;17.00;7.07;;;17.40;70.90;;;;;;4995110;28;20236;-94
2022/10/10 09:38:34;;;;;;;10.73;6.23;;;17.50;70.80;;;;;;4997765;28;20567;-94
2022/10/10 09:41:14;;;;;;;12.07;6.40;;;17.50;70.60;;;;;;4996067;28;20206;-95
2022/10/10 09:43:43;;;;;;;15.73;7.03;;;17.60;70.70;;;;;;4997018;28;20293;-95
2022/10/10 09:46:12;;;;;;;13.27;6.77;;;17.70;70.60;;;;;;4997640;28;20559;-95
2022/10/10 09:48:56;;;;;;;17.10;6.60;;;17.80;70.60;;;;;;4994695;28;20210;-96
2022/10/10 09:55:18;;;;;;;16.93;8.23;;;18.00;70.90;;;;;;4991251;28;20758;-96
2022/10/10 09:57:54;;;;;;;12.30;7.27;;;18.10;70.70;;;;;;4990534;28;20234;-95
2022/10/10 10:00:36;;;;;;;12.57;6.20;;;18.20;70.80;;;;;;4996193;28;20296;-96
2022/10/10 10:03:38;;;;;;;13.67;7.37;;;18.40;70.80;;;;;;4987526;28;20207;-96
2022/10/10 10:06:12;;;;;;;13.83;7.00;;;18.50;71.10;;;;;;4976663;28;20686;-95
2022/10/10 10:08:42;;;;;;;10.47;5.87;;;18.60;71.00;;;;;;4996121;28;20276;-96
2022/10/10 10:11:28;;;;;;;12.00;6.20;;;18.70;71.20;;;;;;4995624;28;20206;-95
2022/10/10 10:14:07;;;;;;;19.50;9.60;;;19.00;71.90;;;;;;4988823;28;20233;-95
2022/10/10 10:17:40;;;;;;;14.17;7.33;;;19.10;71.40;;;;;;4987690;28;20250;-95
2022/10/10 10:20:33;;;;;;;11.90;6.03;;;19.40;71.10;;;;;;4986104;28;20194;-95
2022/10/10 10:28:57;;;;;;;10.77;5.60;;;20.20;71.60;;;;;;4994014;28;20220;-94
2022/10/10 10:31:51;;;;;;;14.27;6.70;;;20.50;70.60;;;;;;5001722;28;20195;-96
2022/10/10 10:34:57;;;;;;;13.53;5.93;;;20.80;70.60;;;;;;4998767;28;20450;-95
2022/10/10 10:38:09;;;;;;;12.70;4.83;;;21.00;69.40;;;;;;4969179;29;20229;-96
2022/10/10 10:41:10;;;;;;;10.67;4.30;;;21.20;68.90;;;;;;4961132;29;20256;-94
2022/10/10 10:43:58;;;;;;;10.80;4.40;;;21.40;68.00;;;;;;4966620;29;20204;-96
2022/10/10 10:46:35;;;;;;;22.77;8.67;;;21.50;67.40;;;;;;4944949;29;20208;-96
2022/10/10 10:49:15;;;;;;;11.83;4.73;;;21.50;67.30;;;;;;4940389;29;20231;-96
2022/10/10 10:52:17;;;;;;;10.67;5.03;;;21.50;66.70;;;;;;4958992;29;20865;-95
2022/10/10 11:01:15;;;;;;;34.73;14.20;;;21.40;66.40;;;;;;5058206;23;20258;-94
2022/10/10 11:07:27;;;;;;;11.53;4.90;;;21.30;67.10;;;;;;5160963;23;20711;-95
2022/10/10 11:10:24;;;;;;;18.40;7.23;;;21.20;67.00;;;;;;4989742;28;20205;-95
2022/10/10 11:13:36;;;;;;;20.07;8.43;;;21.20;67.50;;;;;;4974878;28;21000;-93
2022/10/10 11:16:22;;;;;;;10.37;6.03;;;21.10;67.90;;;;;;4996766;28;20210;-91
2022/10/10 11:19:22;;;;;;;14.10;6.43;;;21.10;68.30;;;;;;4996810;28;20232;-94
2022/10/10 11:25:16;;;;;;;13.33;5.97;;;21.00;68.20;;;;;;5009577;23;20291;-94
2022/10/10 11:28:01;;;;;;;11.57;6.37;;;20.90;68.60;;;;;;4978726;28;20257;-95
2022/10/10 11:30:33;;;;;;;28.07;16.10;;;20.80;68.80;;;;;;4993817;28;20205;-94
2022/10/10 11:33:13;;;;;;;18.80;10.77;;;20.80;68.90;;;;;;4989163;28;20206;-94
2022/10/10 11:35:46;;;;;;;15.33;7.13;;;20.70;69.60;;;;;;4975552;28;20572;-95
2022/10/10 11:44:05;;;;;;;13.27;6.40;;;20.60;71.10;;;;;;4934361;28;20293;-94
2022/10/10 11:47:13;;;;;;;18.70;7.63;;;20.60;71.20;;;;;;4992455;28;20190;-95
2022/10/10 11:55:47;;;;;;;12.97;4.60;;;20.50;71.90;;;;;;4964378;28;20299;-96
2022/10/10 11:58:39;;;;;;;8.50;3.40;;;20.50;71.30;;;;;;4969504;28;20237;-96
2022/10/10 12:04:37;;;;;;;5.20;2.17;;;20.40;71.90;;;;;;4967810;28;20242;-96
2022/10/10 12:07:17;;;;;;;7.93;2.50;;;20.30;71.40;;;;;;4975035;28;20207;-94
2022/10/10 12:09:53;;;;;;;8.23;2.60;;;20.30;71.40;;;;;;4976458;28;20562;-96
2022/10/10 12:16:06;;;;;;;7.70;2.67;;;20.30;71.50;;;;;;4913919;28;20214;-96
2022/10/10 12:18:41;;;;;;;10.43;3.70;;;20.10;71.30;;;;;;4959557;28;20236;-96
2022/10/10 12:21:19;;;;;;;8.67;2.90;;;20.20;71.40;;;;;;4965576;28;20227;-95
2022/10/10 12:24:05;;;;;;;8.63;3.23;;;20.10;71.20;;;;;;4969291;28;20203;-96
2022/10/10 12:27:20;;;;;;;6.33;2.47;;;20.00;71.40;;;;;;4980675;28;20207;-96
2022/10/10 12:30:43;;;;;;;10.20;2.53;;;20.00;71.60;;;;;;4983919;28;20559;-96
2022/10/10 12:42:23;;;;;;;7.10;2.40;;;19.80;71.70;;;;;;5486777;23;20699;-96
2022/10/10 12:48:25;;;;;;;8.53;2.83;;;19.70;72.00;;;;;;5083714;23;20234;-95
2022/10/10 12:57:43;;;;;;;4.03;1.63;;;19.60;72.30;;;;;;4995925;28;20237;-96
2022/10/10 13:45:56;;;;;;;10.07;3.63;;;19.20;72.40;;;;;;5713505;23;21561;-96
2022/10/10 13:57:52;;;;;;;6.97;2.23;;;19.00;71.90;;;;;;4962002;28;20207;-93
2022/10/10 14:00:22;;;;;;;12.10;3.50;;;19.00;71.50;;;;;;4981756;28;20730;-92
2022/10/10 14:02:54;;;;;;;9.57;2.43;;;18.90;71.30;;;;;;4979785;28;20194;-90
2022/10/10 14:08:24;;;;;;;11.67;3.90;;;18.90;72.00;;;;;;4977838;28;20203;-93
2022/10/10 14:11:09;;;;;;;9.80;3.20;;;18.80;72.00;;;;;;4972607;28;20271;-94
2022/10/10 14:13:38;;;;;;;9.47;3.27;;;18.80;72.00;;;;;;4972512;28;20211;-94
2022/10/10 14:19:35;;;;;;;9.60;3.00;;;18.70;72.00;;;;;;4898014;28;20577;-94
2022/10/10 14:22:38;;;;;;;13.07;3.93;;;18.70;71.10;;;;;;4972322;28;20333;-94
2022/10/10 14:25:08;;;;;;;9.87;2.73;;;18.70;70.10;;;;;;4967554;28;20238;-96
2022/10/10 14:27:35;;;;;;;10.47;3.70;;;18.60;69.90;;;;;;4971617;28;20202;-93
2022/10/10 14:30:06;;;;;;;9.07;2.80;;;18.60;69.40;;;;;;4974604;28;20207;-96
2022/10/10 14:32:34;;;;;;;13.67;4.17;;;18.60;69.00;;;;;;4954020;28;20243;-94
2022/10/10 14:35:14;;;;;;;14.57;4.40;;;18.60;68.90;;;;;;4940894;29;20697;-95
2022/10/10 14:37:44;;;;;;;13.60;3.87;;;18.60;69.00;;;;;;4936129;29;20665;-94
2022/10/10 14:40:19;;;;;;;12.00;3.57;;;18.50;69.20;;;;;;4952569;28;20731;-95
2022/10/10 14:42:55;;;;;;;10.60;2.87;;;18.60;69.40;;;;;;4956344;28;20942;-95
2022/10/10 14:45:23;;;;;;;11.90;3.40;;;18.60;69.50;;;;;;4945711;29;20222;-95
2022/10/10 14:47:53;;;;;;;12.47;3.20;;;18.60;69.10;;;;;;4942723;28;20204;-96
2022/10/10 14:50:27;;;;;;;13.40;4.03;;;18.60;69.10;;;;;;4955768;28;20208;-96
2022/10/10 14:52:54;;;;;;;14.10;4.63;;;18.60;69.20;;;;;;4945980;29;20204;-95
2022/10/10 14:55:21;;;;;;;12.70;3.80;;;18.60;69.40;;;;;;4941278;28;20218;-95
2022/10/10 14:57:49;;;;;;;11.20;3.27;;;18.70;69.40;;;;;;4939417;28;20246;-96
2022/10/10 15:00:25;;;;;;;13.33;2.63;;;18.70;69.40;;;;;;4953612;28;20270;-94
2022/10/10 15:02:53;;;;;;;9.10;2.13;;;18.70;69.40;;;;;;4958571;28;20211;-95
2022/10/10 15:05:23;;;;;;;12.50;3.37;;;18.70;69.30;;;;;;4956790;28;20266;-94
2022/10/10 15:07:52;;;;;;;9.77;2.83;;;18.80;67.60;;;;;;4960194;28;20211;-95
2022/10/10 15:10:22;;;;;;;18.40;4.73;;;18.80;66.50;;;;;;4947822;28;20259;-95
2022/10/10 15:12:51;;;;;;;11.20;2.87;;;18.80;65.80;;;;;;4942826;28;20208;-94
2022/10/10 15:15:21;;;;;;;14.37;2.90;;;18.80;65.00;;;;;;4956694;29;20204;-95
2022/10/10 15:17:48;;;;;;;10.40;2.83;;;18.80;64.80;;;;;;4949619;28;20214;-94
2022/10/10 15:20:26;;;;;;;10.40;2.60;;;18.80;65.10;;;;;;4953994;28;20243;-93
2022/10/10 15:22:59;;;;;;;9.33;2.80;;;18.80;64.40;;;;;;4955571;28;20214;-94
2022/10/10 15:25:28;;;;;;;8.47;2.60;;;18.80;64.30;;;;;;4956428;28;20214;-93
2022/10/10 15:27:56;;;;;;;9.77;3.00;;;18.80;64.00;;;;;;4965170;28;20266;-95
2022/10/10 15:30:31;;;;;;;11.93;3.30;;;18.80;64.30;;;;;;4960461;28;20336;-96
2022/10/10 15:32:59;;;;;;;12.00;3.93;;;18.80;64.40;;;;;;4953543;28;20206;-95
2022/10/10 15:39:02;;;;;;;12.57;3.97;;;18.80;64.40;;;;;;4937241;29;20220;-95
2022/10/10 15:42:04;;;;;;;10.77;3.33;;;18.70;63.00;;;;;;4935946;28;20199;-96
2022/10/10 15:44:37;;;;;;;11.97;3.77;;;18.70;63.50;;;;;;4945684;28;20211;-95
2022/10/10 15:47:29;;;;;;;7.50;2.37;;;18.70;63.80;;;;;;4938429;29;20211;-95
2022/10/10 15:49:57;;;;;;;8.57;2.00;;;18.60;63.60;;;;;;4943909;29;20219;-96
2022/10/10 15:52:51;;;;;;;8.43;2.30;;;18.60;63.80;;;;;;4951956;28;20563;-94
2022/10/10 15:55:25;;;;;;;18.20;3.53;;;18.50;63.80;;;;;;4956255;29;20262;-96
2022/10/10 15:57:52;;;;;;;10.17;3.07;;;18.50;62.70;;;;;;4947881;28;20226;-95
2022/10/10 16:00:38;;;;;;;8.57;2.73;;;18.50;63.10;;;;;;4953517;28;20234;-96
2022/10/10 16:03:07;;;;;;;8.77;3.40;;;18.40;62.50;;;;;;4950713;29;20247;-94
2022/10/10 16:08:47;;;;;;;7.30;2.30;;;18.30;61.70;;;;;;4942876;28;20207;-95
2022/10/10 16:11:21;;;;;;;12.80;3.67;;;18.20;62.30;;;;;;4944981;28;20250;-94
2022/10/10 16:14:04;;;;;;;14.17;3.53;;;18.20;61.80;;;;;;4951864;29;20262;-95
2022/10/10 16:16:37;;;;;;;14.97;4.87;;;18.20;61.40;;;;;;4955941;29;20464;-96
2022/10/10 16:19:05;;;;;;;9.53;2.50;;;18.20;61.90;;;;;;4966885;29;20297;-96
2022/10/10 16:21:35;;;;;;;4.77;1.97;;;18.10;62.00;;;;;;4966442;28;20215;-96
2022/10/10 16:24:09;;;;;;;11.87;2.80;;;18.10;62.00;;;;;;4949854;29;20211;-96
2022/10/10 16:32:57;;;;;;;11.27;3.23;;;17.90;61.70;;;;;;4973325;29;20250;-96
2022/10/10 16:44:07;;;;;;;10.90;3.93;;;17.80;62.40;;;;;;4965587;28;20214;-95
2022/10/10 16:46:42;;;;;;;12.43;3.80;;;17.80;62.10;;;;;;4938512;29;20210;-95
2022/10/10 16:49:12;;;;;;;16.60;4.40;;;17.80;62.20;;;;;;4956188;28;20302;-92
2022/10/10 17:04:44;;;;;;;10.20;3.03;;;17.60;62.30;;;;;;4979925;28;20214;-95
2022/10/10 17:11:15;;;;;;;6.57;3.33;;;17.50;62.40;;;;;;4996668;28;20238;-95
2022/10/10 17:13:51;;;;;;;10.23;4.10;;;17.50;62.50;;;;;;4987003;28;20206;-96
2022/10/10 17:16:21;;;;;;;7.77;3.27;;;17.40;63.00;;;;;;4967720;28;20200;-96
2022/10/10 17:18:50;;;;;;;10.10;3.07;;;17.40;63.20;;;;;;4978736;28;20210;-96
2022/10/10 17:24:32;;;;;;;13.67;4.13;;;17.30;62.40;;;;;;4985565;28;20292;-96
2022/10/10 17:29:31;;;;;;;19.37;5.60;;;17.20;63.00;;;;;;5010049;23;20243;-96
2022/10/10 17:34:41;;;;;;;20.20;6.77;;;17.10;62.50;;;;;;4997521;28;20224;-96
2022/10/10 17:39:55;;;;;;;15.03;6.47;;;17.00;62.50;;;;;;4977940;28;20218;-95
2022/10/10 17:42:25;;;;;;;24.43;9.53;;;17.00;62.50;;;;;;4992124;28;20221;-94
2022/10/10 17:44:55;;;;;;;21.23;8.33;;;16.90;62.70;;;;;;4988210;28;20204;-94
2022/10/10 17:50:19;;;;;;;17.07;7.73;;;16.80;62.40;;;;;;4988976;28;20214;-95